Time;durP1;ratioP1;P1;durP2;ratioP2;P2;SDS_P1;SDS_P2;PMS_P1;PMS_P2;Temp;Humidity;BMP_temperature;BMP_pressure;BME280_temperature;BME280_humidity;BME280_pressure;Samples;Min_cycle;Max_cycle;Signal;HPM_P1;HPM_P2
2021/01/01 00:00:16;;;;;;;2.55;0.68;;;19.60;59.70;;;;;;5054099;28;20045;-71
2021/01/01 00:02:44;;;;;;;1.52;0.73;;;19.20;60.00;;;;;;5055201;28;20347;-70
2021/01/01 00:05:17;;;;;;;1.05;0.50;;;19.20;60.60;;;;;;5054817;28;20029;-71
2021/01/01 00:07:45;;;;;;;1.70;0.52;;;18.90;60.90;;;;;;5053450;28;20040;-70
2021/01/01 00:10:14;;;;;;;3.05;0.80;;;18.70;61.50;;;;;;5054911;28;20052;-72
2021/01/01 00:12:41;;;;;;;2.47;0.60;;;18.60;61.50;;;;;;5054857;28;20033;-72
2021/01/01 00:15:09;;;;;;;3.60;0.80;;;18.60;61.40;;;;;;5053108;28;20033;-72
2021/01/01 00:17:36;;;;;;;3.03;0.80;;;18.20;62.50;;;;;;5054700;28;20041;-73
2021/01/01 00:20:08;;;;;;;3.92;0.82;;;17.50;64.70;;;;;;5054356;28;20028;-71
2021/01/01 00:22:36;;;;;;;3.22;0.93;;;16.90;66.40;;;;;;5054633;28;20033;-72
2021/01/01 00:25:05;;;;;;;1.92;0.60;;;16.40;68.00;;;;;;5054663;28;20028;-72
2021/01/01 00:27:32;;;;;;;4.35;1.13;;;15.90;70.50;;;;;;5055947;28;20033;-72
2021/01/01 00:30:00;;;;;;;6.70;1.40;;;15.60;71.50;;;;;;5054604;28;20461;-73
2021/01/01 00:32:27;;;;;;;3.75;0.93;;;15.30;71.70;;;;;;5054606;28;20021;-72
2021/01/01 00:34:54;;;;;;;4.72;1.05;;;14.90;73.30;;;;;;5054156;28;20488;-72
2021/01/01 00:37:21;;;;;;;3.47;1.10;;;14.70;75.10;;;;;;5058770;28;20049;-73
2021/01/01 00:39:49;;;;;;;3.50;1.02;;;14.50;76.50;;;;;;5073449;28;20480;-73
2021/01/01 00:42:16;;;;;;;5.28;1.27;;;14.20;76.60;;;;;;5073854;28;20032;-71
2021/01/01 00:44:43;;;;;;;1.75;0.70;;;14.10;78.40;;;;;;5068324;28;20020;-72
2021/01/01 00:47:11;;;;;;;3.33;1.02;;;13.90;82.20;;;;;;5073572;28;20028;-72
2021/01/01 00:49:39;;;;;;;5.47;1.13;;;13.70;82.50;;;;;;5073599;28;20246;-71
2021/01/01 00:52:06;;;;;;;3.03;1.25;;;13.60;84.90;;;;;;5073988;28;20028;-72
2021/01/01 00:54:34;;;;;;;4.15;1.30;;;13.40;88.40;;;;;;5073639;28;20029;-72
2021/01/01 00:57:01;;;;;;;6.60;1.25;;;13.30;88.40;;;;;;5073697;28;20024;-72
2021/01/01 00:59:28;;;;;;;7.97;2.90;;;13.10;89.30;;;;;;5052704;28;20036;-72
2021/01/01 01:01:56;;;;;;;3.60;1.10;;;12.90;90.60;;;;;;5053090;28;20045;-72
2021/01/01 01:04:23;;;;;;;6.45;1.10;;;12.80;93.00;;;;;;5055351;28;20039;-72
2021/01/01 01:06:58;;;;;;;3.13;1.17;;;12.60;92.70;;;;;;5054035;28;20029;-72
2021/01/01 01:09:25;;;;;;;4.07;1.40;;;12.50;95.40;;;;;;5053643;28;20044;-71
2021/01/01 01:11:52;;;;;;;4.47;1.42;;;12.40;94.70;;;;;;5053379;28;20029;-71
2021/01/01 01:14:19;;;;;;;4.28;1.08;;;12.20;95.30;;;;;;5052301;28;20021;-72
2021/01/01 01:16:46;;;;;;;3.92;1.35;;;12.10;95.60;;;;;;5055937;28;20024;-72
2021/01/01 01:19:13;;;;;;;4.65;1.17;;;12.00;97.00;;;;;;5053074;28;20021;-73
2021/01/01 01:21:40;;;;;;;6.70;1.83;;;11.90;96.70;;;;;;5052745;28;20041;-72
2021/01/01 01:24:07;;;;;;;2.58;1.50;;;11.80;96.90;;;;;;5051793;28;20033;-72
2021/01/01 01:26:35;;;;;;;4.50;1.10;;;11.80;97.90;;;;;;5053065;28;20028;-72
2021/01/01 01:29:03;;;;;;;6.45;1.98;;;11.70;97.80;;;;;;5056565;28;20027;-72
2021/01/01 01:31:30;;;;;;;7.97;1.77;;;11.60;98.20;;;;;;5053198;28;20032;-72
2021/01/01 01:33:57;;;;;;;3.97;1.30;;;11.60;98.80;;;;;;5053218;28;20025;-74
2021/01/01 01:36:24;;;;;;;7.10;1.30;;;11.50;98.90;;;;;;5052364;28;20029;-72
2021/01/01 01:38:52;;;;;;;8.07;1.52;;;11.50;99.90;;;;;;5052997;28;20029;-72
2021/01/01 01:41:19;;;;;;;3.10;1.05;;;11.40;99.90;;;;;;5059380;28;20044;-72
2021/01/01 01:43:46;;;;;;;6.53;1.20;;;11.40;99.60;;;;;;5071855;28;20334;-73
2021/01/01 01:46:17;;;;;;;8.85;1.77;;;11.40;99.70;;;;;;5070905;28;20036;-75
2021/01/01 01:48:45;;;;;;;3.95;1.30;;;11.30;99.60;;;;;;5060872;28;20032;-73
2021/01/01 01:51:13;;;;;;;5.70;1.27;;;11.30;99.90;;;;;;5072477;28;20533;-72
2021/01/01 01:53:44;;;;;;;7.80;1.60;;;11.30;99.90;;;;;;5072411;28;20032;-74
2021/01/01 01:56:12;;;;;;;5.32;1.65;;;11.20;99.90;;;;;;5052527;28;20488;-73
2021/01/01 01:58:41;;;;;;;7.85;2.03;;;11.10;99.90;;;;;;5051113;28;20036;-72
2021/01/01 02:01:08;;;;;;;5.63;1.85;;;11.00;99.90;;;;;;5063484;28;20051;-75
2021/01/01 02:03:35;;;;;;;6.22;1.35;;;11.00;99.90;;;;;;5053046;28;20017;-74
2021/01/01 02:06:02;;;;;;;4.80;1.25;;;10.90;99.90;;;;;;5053224;28;20036;-73
2021/01/01 02:08:30;;;;;;;9.18;1.92;;;10.90;99.90;;;;;;5062989;28;20043;-71
2021/01/01 02:10:58;;;;;;;9.85;4.90;;;10.80;99.90;;;;;;5049851;28;20044;-70
2021/01/01 02:13:26;;;;;;;21.67;6.72;;;10.70;99.90;;;;;;5062140;28;20040;-70
2021/01/01 02:15:53;;;;;;;23.83;10.23;;;10.70;99.90;;;;;;5058638;28;20041;-70
2021/01/01 02:18:37;;;;;;;14.57;4.22;;;10.70;99.90;;;;;;5062750;28;20032;-72
2021/01/01 02:21:05;;;;;;;5.97;1.90;;;10.60;99.90;;;;;;5067368;28;20045;-71
2021/01/01 02:23:33;;;;;;;7.60;2.35;;;10.70;99.90;;;;;;5048732;28;20064;-71
2021/01/01 02:26:01;;;;;;;7.63;3.03;;;10.70;99.90;;;;;;5049792;28;20033;-71
2021/01/01 02:28:28;;;;;;;7.97;2.20;;;10.60;99.90;;;;;;5053835;28;20028;-70
2021/01/01 02:30:55;;;;;;;14.88;2.35;;;10.60;99.90;;;;;;5051828;28;20032;-71
2021/01/01 02:33:22;;;;;;;7.70;2.55;;;10.60;99.90;;;;;;5051086;28;20028;-72
2021/01/01 02:35:49;;;;;;;7.45;2.17;;;10.70;99.90;;;;;;5051751;28;20029;-71
2021/01/01 02:38:16;;;;;;;11.30;2.25;;;10.70;99.90;;;;;;5051158;28;20049;-70
2021/01/01 02:40:43;;;;;;;9.35;2.05;;;10.70;99.90;;;;;;5051329;28;20033;-71
2021/01/01 02:43:11;;;;;;;9.80;3.67;;;10.70;99.90;;;;;;5051412;28;20057;-71
2021/01/01 02:45:39;;;;;;;7.38;3.70;;;10.70;99.90;;;;;;5051520;28;20033;-71
2021/01/01 02:48:22;;;;;;;4.85;1.42;;;10.60;99.90;;;;;;5052364;28;20032;-71
2021/01/01 02:50:49;;;;;;;6.32;1.80;;;10.70;99.90;;;;;;5041169;28;20029;-71
2021/01/01 02:53:16;;;;;;;4.55;1.70;;;10.60;99.90;;;;;;5053056;28;20378;-71
2021/01/01 02:55:43;;;;;;;6.85;3.58;;;10.60;99.90;;;;;;5071473;28;20113;-70
2021/01/01 02:58:10;;;;;;;11.18;5.15;;;10.50;99.90;;;;;;5071169;28;20041;-69
2021/01/01 03:00:39;;;;;;;3.20;1.38;;;10.50;99.90;;;;;;5051558;28;20433;-70
2021/01/01 03:03:07;;;;;;;12.23;6.40;;;10.50;99.90;;;;;;5051685;28;20025;-71
2021/01/01 03:05:34;;;;;;;20.10;11.88;;;10.50;99.90;;;;;;5070371;28;20037;-71
2021/01/01 03:08:02;;;;;;;4.60;1.45;;;10.50;99.90;;;;;;5071482;28;20025;-73
2021/01/01 03:10:28;;;;;;;9.98;3.70;;;10.60;99.90;;;;;;5053408;28;20037;-71
2021/01/01 03:12:55;;;;;;;18.77;9.27;;;10.60;99.90;;;;;;5051046;28;20029;-69
2021/01/01 03:15:22;;;;;;;6.07;3.15;;;10.70;99.90;;;;;;5068065;28;20366;-69
2021/01/01 03:17:49;;;;;;;14.00;8.73;;;10.60;99.90;;;;;;5071509;28;20414;-69
2021/01/01 03:20:17;;;;;;;6.05;1.20;;;10.50;99.90;;;;;;5069886;28;20381;-70
2021/01/01 03:22:43;;;;;;;29.17;18.65;;;10.60;99.90;;;;;;5072385;28;20384;-72
2021/01/01 03:25:11;;;;;;;11.07;5.18;;;10.60;99.90;;;;;;5075154;28;20056;-71
2021/01/01 03:27:38;;;;;;;11.45;7.18;;;10.60;99.90;;;;;;5075288;28;20031;-71
2021/01/01 03:30:07;;;;;;;3.03;1.92;;;10.50;99.90;;;;;;5062678;28;20028;-71
2021/01/01 03:32:34;;;;;;;5.95;3.28;;;10.50;99.90;;;;;;5065017;28;20021;-71
2021/01/01 03:35:01;;;;;;;4.97;2.30;;;10.40;99.90;;;;;;5055525;28;20420;-69
2021/01/01 03:37:29;;;;;;;4.97;1.75;;;10.40;99.90;;;;;;5062552;28;20032;-70
2021/01/01 03:39:56;;;;;;;6.05;2.10;;;10.40;99.90;;;;;;5076196;28;20040;-71
2021/01/01 03:42:23;;;;;;;6.05;3.13;;;10.30;99.90;;;;;;5065305;28;20052;-71
2021/01/01 03:44:49;;;;;;;4.43;1.70;;;10.20;99.90;;;;;;5054987;28;20381;-70
2021/01/01 03:47:16;;;;;;;5.80;2.30;;;10.10;99.90;;;;;;5066348;28;20432;-70
2021/01/01 03:49:43;;;;;;;5.18;2.13;;;10.00;99.90;;;;;;5074988;28;20381;-69
2021/01/01 03:52:10;;;;;;;4.60;2.20;;;9.90;99.90;;;;;;5073148;28;20047;-69
2021/01/01 03:54:37;;;;;;;2.50;1.33;;;9.90;99.90;;;;;;5065436;28;20503;-71
2021/01/01 03:57:04;;;;;;;2.92;1.92;;;9.80;99.90;;;;;;5054195;28;20048;-71
2021/01/01 03:59:31;;;;;;;3.65;2.85;;;9.80;99.90;;;;;;5062348;28;20534;-72
2021/01/01 04:01:58;;;;;;;6.60;3.75;;;9.70;99.90;;;;;;5072139;28;20103;-71
2021/01/01 04:04:25;;;;;;;3.38;2.13;;;9.70;99.90;;;;;;5054709;28;20037;-71
2021/01/01 04:06:52;;;;;;;3.83;1.10;;;9.70;99.90;;;;;;5059002;28;20043;-71
2021/01/01 04:09:19;;;;;;;1.83;1.00;;;9.60;99.90;;;;;;5074682;28;20021;-72
2021/01/01 04:11:45;;;;;;;3.83;1.08;;;9.60;99.90;;;;;;5070774;28;20044;-71
2021/01/01 04:14:12;;;;;;;2.13;1.38;;;9.60;99.90;;;;;;5072774;28;20036;-71
2021/01/01 04:16:46;;;;;;;4.00;1.95;;;9.60;99.90;;;;;;5072144;28;20036;-71
2021/01/01 04:19:14;;;;;;;3.28;1.13;;;9.50;99.90;;;;;;5052949;28;20064;-72
2021/01/01 04:21:50;;;;;;;3.63;0.93;;;9.50;99.90;;;;;;5054813;28;20047;-72
2021/01/01 04:24:18;;;;;;;1.80;0.70;;;9.50;99.90;;;;;;5034466;28;20044;-71
2021/01/01 04:26:48;;;;;;;2.13;1.05;;;9.60;99.90;;;;;;5043971;28;20083;-72
2021/01/01 04:29:18;;;;;;;3.80;1.38;;;9.60;99.90;;;;;;5074262;28;20028;-72
2021/01/01 04:31:45;;;;;;;3.83;1.98;;;9.50;99.90;;;;;;5070970;28;20032;-72
2021/01/01 04:34:14;;;;;;;5.13;1.63;;;9.60;99.90;;;;;;5052619;28;20042;-71
2021/01/01 04:36:41;;;;;;;5.30;2.15;;;9.50;99.90;;;;;;5054070;28;20354;-72
2021/01/01 04:39:09;;;;;;;2.30;1.00;;;9.60;99.90;;;;;;5054215;28;20365;-72
2021/01/01 04:41:39;;;;;;;2.65;1.30;;;9.60;99.90;;;;;;5055235;28;20052;-71
2021/01/01 04:44:07;;;;;;;4.07;1.15;;;9.70;99.90;;;;;;5073632;28;20037;-70
2021/01/01 04:46:38;;;;;;;2.47;0.52;;;9.90;99.90;;;;;;5071245;28;20036;-70
2021/01/01 04:49:05;;;;;;;1.75;1.00;;;10.00;99.90;;;;;;5034086;28;20037;-73
2021/01/01 04:51:32;;;;;;;7.18;3.20;;;10.10;99.90;;;;;;5033972;28;20038;-71
2021/01/01 04:54:02;;;;;;;10.10;3.70;;;10.10;99.90;;;;;;5073702;28;20032;-71
2021/01/01 04:56:32;;;;;;;9.93;4.75;;;10.00;99.90;;;;;;5073551;28;20036;-71
2021/01/01 04:59:01;;;;;;;8.15;3.67;;;10.00;99.90;;;;;;5054659;28;20029;-71
2021/01/01 05:01:28;;;;;;;9.43;4.18;;;9.90;99.90;;;;;;5053972;28;20029;-71
2021/01/01 05:03:55;;;;;;;13.85;5.97;;;9.90;99.90;;;;;;5053364;28;20029;-71
2021/01/01 05:06:33;;;;;;;9.98;3.90;;;9.80;99.90;;;;;;5054788;28;20029;-71
2021/01/01 05:09:00;;;;;;;11.63;5.53;;;9.80;99.90;;;;;;5053941;28;20033;-71
2021/01/01 05:11:27;;;;;;;10.73;4.38;;;9.80;99.90;;;;;;5067136;28;20033;-71
2021/01/01 05:13:56;;;;;;;7.30;3.80;;;9.80;99.90;;;;;;5073563;28;20028;-71
2021/01/01 05:16:26;;;;;;;4.60;1.90;;;9.80;99.90;;;;;;5059235;28;20029;-71
2021/01/01 05:18:53;;;;;;;2.85;1.48;;;9.90;99.80;;;;;;5062391;28;20047;-71
2021/01/01 05:21:25;;;;;;;3.75;1.60;;;9.80;99.70;;;;;;5073058;28;20043;-71
2021/01/01 05:23:54;;;;;;;5.03;2.25;;;9.90;99.90;;;;;;5073072;28;20033;-71
2021/01/01 05:26:30;;;;;;;8.35;4.82;;;9.80;99.80;;;;;;5064182;28;20033;-71
2021/01/01 05:29:06;;;;;;;15.95;8.10;;;9.90;99.60;;;;;;5058994;28;20030;-71
2021/01/01 05:31:41;;;;;;;8.93;4.65;;;9.90;99.20;;;;;;5071051;28;20377;-71
2021/01/01 05:34:13;;;;;;;3.95;2.15;;;9.80;99.80;;;;;;5051666;28;20056;-71
2021/01/01 05:36:42;;;;;;;6.70;3.58;;;9.80;99.00;;;;;;5060540;28;20101;-71
2021/01/01 05:39:18;;;;;;;10.35;4.68;;;9.80;98.90;;;;;;5072836;28;20037;-71
2021/01/01 05:41:46;;;;;;;4.20;2.40;;;9.80;98.70;;;;;;5064579;28;20099;-71
2021/01/01 05:44:21;;;;;;;5.40;2.22;;;9.80;99.60;;;;;;5053030;28;20465;-70
2021/01/01 05:47:01;;;;;;;3.25;1.95;;;9.70;99.90;;;;;;5056942;28;20028;-71
2021/01/01 05:49:36;;;;;;;4.40;2.80;;;9.60;99.90;;;;;;5071431;28;20040;-72
2021/01/01 05:52:17;;;;;;;3.10;1.55;;;9.60;99.70;;;;;;5060056;28;20040;-71
2021/01/01 05:54:46;;;;;;;4.38;2.47;;;9.60;99.90;;;;;;5053472;28;20119;-72
2021/01/01 05:57:15;;;;;;;4.47;2.08;;;9.60;99.90;;;;;;5072282;28;20489;-72
2021/01/01 05:59:48;;;;;;;3.55;2.53;;;9.60;99.90;;;;;;5072324;28;20028;-71
2021/01/01 06:02:15;;;;;;;5.72;2.40;;;9.50;99.90;;;;;;5061326;28;20377;-71
2021/01/01 06:04:42;;;;;;;4.13;2.20;;;9.50;99.90;;;;;;5052349;28;20021;-71
2021/01/01 06:07:11;;;;;;;6.18;3.10;;;9.40;99.90;;;;;;5032495;28;20037;-71
2021/01/01 06:09:39;;;;;;;8.32;4.70;;;9.40;99.90;;;;;;5032173;28;20036;-71
2021/01/01 06:12:13;;;;;;;6.57;4.65;;;9.40;99.90;;;;;;5069204;28;20044;-71
2021/01/01 06:14:42;;;;;;;11.07;6.68;;;9.20;99.90;;;;;;5052316;28;20373;-72
2021/01/01 06:17:12;;;;;;;11.73;5.07;;;9.10;99.90;;;;;;5053329;28;20565;-71
2021/01/01 06:19:49;;;;;;;12.00;6.22;;;9.10;99.90;;;;;;5052326;28;20052;-71
2021/01/01 06:22:21;;;;;;;6.93;3.55;;;8.90;99.90;;;;;;5071946;28;20048;-71
2021/01/01 06:24:50;;;;;;;5.07;2.75;;;8.90;99.90;;;;;;5053108;28;20036;-72
2021/01/01 06:27:19;;;;;;;10.93;4.90;;;8.80;99.90;;;;;;5051477;28;20048;-72
2021/01/01 06:29:51;;;;;;;6.78;3.78;;;8.80;99.90;;;;;;5052846;28;20029;-70
2021/01/01 06:32:20;;;;;;;9.52;4.47;;;8.80;99.90;;;;;;5051895;28;20112;-71
2021/01/01 06:34:48;;;;;;;7.63;4.35;;;8.80;99.90;;;;;;5054103;28;20052;-71
2021/01/01 06:37:37;;;;;;;3.88;2.25;;;8.80;99.90;;;;;;5067017;28;20025;-71
2021/01/01 06:40:07;;;;;;;4.65;1.65;;;8.90;99.90;;;;;;5070669;28;20051;-71
2021/01/01 06:42:55;;;;;;;4.63;2.15;;;8.90;99.90;;;;;;5070964;28;20068;-71
2021/01/01 06:45:36;;;;;;;3.65;1.73;;;9.00;99.90;;;;;;5052689;28;20489;-71
2021/01/01 06:48:04;;;;;;;6.30;2.22;;;9.00;99.90;;;;;;5065440;28;20052;-72
2021/01/01 06:50:34;;;;;;;3.97;1.90;;;8.90;99.90;;;;;;5072203;28;20032;-70
2021/01/01 06:53:07;;;;;;;4.63;1.92;;;8.90;99.90;;;;;;5057627;28;20040;-70
2021/01/01 06:55:39;;;;;;;17.20;10.82;;;9.00;99.90;;;;;;5068697;28;20036;-73
2021/01/01 06:58:06;;;;;;;19.75;10.48;;;8.90;99.90;;;;;;5056066;28;20028;-70
2021/01/01 07:00:45;;;;;;;16.85;8.38;;;8.90;99.90;;;;;;5049733;28;20033;-71
2021/01/01 07:03:30;;;;;;;11.88;6.65;;;8.80;99.90;;;;;;5052689;28;20500;-71
2021/01/01 07:06:17;;;;;;;24.88;12.73;;;8.80;99.90;;;;;;5051311;28;20032;-71
2021/01/01 07:08:45;;;;;;;23.63;11.90;;;8.70;99.90;;;;;;5069750;28;20033;-72
2021/01/01 07:11:18;;;;;;;14.65;7.95;;;8.60;99.90;;;;;;5071467;28;20021;-72
2021/01/01 07:13:52;;;;;;;10.15;5.20;;;8.60;99.90;;;;;;5068425;28;20043;-72
2021/01/01 07:16:23;;;;;;;5.85;3.08;;;8.60;99.90;;;;;;5052859;28;20381;-71
2021/01/01 07:18:52;;;;;;;12.15;3.47;;;8.60;99.90;;;;;;5052311;28;20033;-71
2021/01/01 07:21:20;;;;;;;6.70;3.20;;;8.50;99.90;;;;;;5068009;28;20048;-71
2021/01/01 07:23:47;;;;;;;12.65;5.25;;;8.50;99.90;;;;;;5071115;28;20484;-71
2021/01/01 07:26:15;;;;;;;10.50;4.78;;;8.50;99.90;;;;;;5053427;28;20036;-71
2021/01/01 07:28:47;;;;;;;11.02;4.53;;;8.50;99.90;;;;;;5049813;28;20033;-71
2021/01/01 07:31:19;;;;;;;8.32;2.50;;;8.50;99.90;;;;;;5052088;28;20045;-71
2021/01/01 07:33:47;;;;;;;7.32;2.50;;;8.50;99.90;;;;;;5064737;28;20477;-71
2021/01/01 07:36:15;;;;;;;11.15;3.20;;;8.50;99.90;;;;;;5071269;28;20036;-70
2021/01/01 07:38:45;;;;;;;11.68;4.55;;;8.50;99.90;;;;;;5057170;28;20049;-70
2021/01/01 07:41:12;;;;;;;12.30;5.13;;;8.40;99.90;;;;;;5057098;28;20036;-71
2021/01/01 07:43:39;;;;;;;18.17;6.00;;;8.40;99.90;;;;;;5071293;28;20028;-70
2021/01/01 07:46:08;;;;;;;19.88;7.38;;;8.40;99.90;;;;;;5060170;28;20496;-71
2021/01/01 07:48:36;;;;;;;14.65;6.00;;;8.30;99.90;;;;;;5050847;28;20334;-71
2021/01/01 07:51:08;;;;;;;4.85;2.15;;;8.40;99.90;;;;;;5052212;28;20021;-70
2021/01/01 07:53:37;;;;;;;4.80;1.80;;;8.40;99.90;;;;;;5051058;28;20362;-71
2021/01/01 07:56:08;;;;;;;7.65;1.95;;;8.40;99.90;;;;;;5060258;28;20028;-71
2021/01/01 07:58:36;;;;;;;3.90;1.98;;;8.40;99.90;;;;;;5070912;28;20039;-71
2021/01/01 08:01:06;;;;;;;3.20;1.95;;;8.40;99.90;;;;;;5064303;28;20021;-71
2021/01/01 08:03:36;;;;;;;14.30;6.13;;;8.40;99.90;;;;;;5052638;28;20033;-71
2021/01/01 08:06:04;;;;;;;6.78;3.40;;;8.40;99.90;;;;;;5057686;28;20622;-70
2021/01/01 08:08:31;;;;;;;7.72;2.55;;;8.40;99.90;;;;;;5070903;28;20036;-69
2021/01/01 08:10:59;;;;;;;3.47;1.90;;;8.50;99.90;;;;;;5073881;28;20020;-69
2021/01/01 08:13:27;;;;;;;2.90;1.10;;;8.50;99.90;;;;;;5063655;28;20028;-69
2021/01/01 08:15:56;;;;;;;2.25;1.10;;;8.50;99.90;;;;;;5055695;28;20513;-69
2021/01/01 08:18:27;;;;;;;3.45;1.10;;;8.50;99.90;;;;;;5055064;28;20377;-69
2021/01/01 08:20:59;;;;;;;8.38;3.88;;;8.50;99.80;;;;;;5053993;28;20139;-70
2021/01/01 08:23:27;;;;;;;3.83;1.20;;;8.60;98.90;;;;;;5057991;28;20041;-70
2021/01/01 08:25:55;;;;;;;0.75;0.60;;;8.60;98.90;;;;;;5055057;28;20045;-69
2021/01/01 08:28:27;;;;;;;0.75;0.30;;;8.60;98.50;;;;;;5073844;28;20029;-69
2021/01/01 08:31:00;;;;;;;0.80;0.47;;;8.70;97.90;;;;;;5072463;28;20056;-69
2021/01/01 08:33:32;;;;;;;0.68;0.50;;;8.90;97.70;;;;;;5069355;28;20036;-69
2021/01/01 08:36:03;;;;;;;3.67;1.20;;;8.90;97.60;;;;;;5053925;28;20037;-69
2021/01/01 08:38:30;;;;;;;0.90;0.50;;;8.90;97.20;;;;;;5053671;28;20041;-69
2021/01/01 08:40:58;;;;;;;0.98;0.60;;;8.90;97.20;;;;;;5034455;28;20029;-68
2021/01/01 08:43:27;;;;;;;0.68;0.40;;;8.90;97.00;;;;;;5068727;28;20405;-69
2021/01/01 08:45:54;;;;;;;0.93;0.28;;;8.90;96.80;;;;;;5057812;28;20032;-68
2021/01/01 08:48:21;;;;;;;3.42;1.50;;;8.80;96.60;;;;;;5055545;28;20021;-69
2021/01/01 08:50:50;;;;;;;1.40;0.73;;;8.80;96.40;;;;;;5054988;28;20029;-69
2021/01/01 08:53:18;;;;;;;2.78;0.80;;;8.80;96.20;;;;;;5054200;28;20037;-71
2021/01/01 08:55:57;;;;;;;0.80;0.50;;;8.80;97.30;;;;;;5053615;28;20060;-70
2021/01/01 08:58:24;;;;;;;2.40;0.82;;;8.80;97.40;;;;;;5053049;28;20040;-70
2021/01/01 09:00:51;;;;;;;1.45;0.70;;;8.80;97.90;;;;;;5054162;28;20469;-69
2021/01/01 09:03:22;;;;;;;4.60;1.42;;;8.80;98.90;;;;;;5073714;28;20477;-69
2021/01/01 09:05:54;;;;;;;0.80;0.70;;;8.80;99.20;;;;;;5068262;28;20028;-70
2021/01/01 09:08:24;;;;;;;3.25;1.48;;;8.90;99.10;;;;;;5061016;28;20045;-69
2021/01/01 09:10:53;;;;;;;1.40;0.63;;;8.80;99.00;;;;;;5053504;28;20025;-70
2021/01/01 09:13:24;;;;;;;2.20;1.35;;;8.80;98.60;;;;;;5052210;28;20036;-70
2021/01/01 09:16:05;;;;;;;1.92;0.70;;;8.70;98.30;;;;;;5053069;28;20048;-70
2021/01/01 09:18:32;;;;;;;1.17;0.50;;;8.70;98.50;;;;;;5053601;28;20033;-70
2021/01/01 09:21:16;;;;;;;2.58;0.73;;;8.70;98.90;;;;;;5052521;28;20025;-70
2021/01/01 09:23:51;;;;;;;1.52;0.95;;;8.60;99.10;;;;;;5070868;28;20044;-69
2021/01/01 09:26:24;;;;;;;2.35;1.00;;;8.60;99.60;;;;;;5065725;28;20033;-70
2021/01/01 09:29:07;;;;;;;3.53;1.20;;;8.50;99.90;;;;;;5052788;28;20052;-70
2021/01/01 09:31:36;;;;;;;2.50;1.17;;;8.50;99.90;;;;;;5064766;28;20041;-70
2021/01/01 09:34:05;;;;;;;3.42;1.25;;;8.50;99.90;;;;;;5072897;28;20036;-69
2021/01/01 09:36:49;;;;;;;2.42;0.70;;;8.50;99.90;;;;;;5060451;28;20048;-69
2021/01/01 09:39:16;;;;;;;2.60;1.20;;;8.40;99.90;;;;;;5052905;28;20361;-70
2021/01/01 09:41:49;;;;;;;4.05;1.10;;;8.40;99.90;;;;;;5053740;28;20029;-70
2021/01/01 09:44:16;;;;;;;1.90;1.00;;;8.40;99.90;;;;;;5052176;28;20063;-72
2021/01/01 09:46:44;;;;;;;4.05;1.20;;;8.40;99.90;;;;;;5064391;28;20033;-70
2021/01/01 09:49:12;;;;;;;5.25;1.17;;;8.40;99.90;;;;;;5063542;28;20044;-70
2021/01/01 09:51:41;;;;;;;2.35;0.85;;;8.50;99.90;;;;;;5056229;28;20405;-69
2021/01/01 09:54:08;;;;;;;2.90;0.95;;;8.50;99.90;;;;;;5059605;28;20029;-70
2021/01/01 09:56:37;;;;;;;5.35;1.10;;;8.40;99.90;;;;;;5055063;28;20044;-72
2021/01/01 09:59:05;;;;;;;1.83;0.80;;;8.50;99.90;;;;;;5054506;28;20041;-70
2021/01/01 10:01:32;;;;;;;1.52;0.90;;;8.50;99.90;;;;;;5068841;28;20338;-70
2021/01/01 10:03:59;;;;;;;1.60;0.82;;;8.50;99.90;;;;;;5072763;28;20043;-70
2021/01/01 10:06:26;;;;;;;4.55;1.20;;;8.60;99.90;;;;;;5065363;28;20374;-70
2021/01/01 10:08:53;;;;;;;5.75;1.67;;;8.60;99.90;;;;;;5056226;28;20035;-70
2021/01/01 10:11:20;;;;;;;2.67;0.70;;;8.60;99.20;;;;;;5070589;28;20477;-70
2021/01/01 10:13:47;;;;;;;1.15;0.50;;;8.50;99.90;;;;;;5069317;28;20044;-75
2021/01/01 10:16:14;;;;;;;1.25;0.40;;;8.50;98.70;;;;;;5059181;28;20482;-75
2021/01/01 10:18:41;;;;;;;1.55;0.60;;;8.60;98.60;;;;;;5052544;28;20038;-76
2021/01/01 10:21:10;;;;;;;0.90;0.50;;;8.80;97.50;;;;;;5052300;28;20025;-75
2021/01/01 10:23:37;;;;;;;0.65;0.30;;;9.20;96.90;;;;;;5050895;28;20488;-72
2021/01/01 10:26:04;;;;;;;1.00;0.93;;;9.40;96.50;;;;;;5052138;28;20477;-74
2021/01/01 10:28:31;;;;;;;1.50;0.30;;;9.50;96.30;;;;;;5051727;28;20037;-74
2021/01/01 10:30:59;;;;;;;0.52;0.30;;;9.60;96.30;;;;;;5051604;28;20033;-73
2021/01/01 10:33:26;;;;;;;1.60;0.55;;;9.60;96.80;;;;;;5050913;28;20040;-74
2021/01/01 10:35:53;;;;;;;0.88;0.40;;;9.70;97.00;;;;;;5052006;28;20029;-73
2021/01/01 10:38:20;;;;;;;4.43;0.70;;;9.60;97.90;;;;;;5051697;28;20060;-73
2021/01/01 10:40:47;;;;;;;3.20;0.43;;;9.50;98.30;;;;;;5051919;28;20469;-74
2021/01/01 10:43:13;;;;;;;3.53;0.50;;;9.50;98.90;;;;;;5051510;28;20408;-73
2021/01/01 10:45:40;;;;;;;0.75;0.52;;;9.40;99.00;;;;;;5051284;28;20025;-73
2021/01/01 10:48:07;;;;;;;0.88;0.50;;;9.30;99.90;;;;;;5051688;28;20032;-73
2021/01/01 10:50:34;;;;;;;1.50;0.50;;;9.00;99.90;;;;;;5051660;28;20468;-74
2021/01/01 10:53:01;;;;;;;2.95;0.98;;;9.10;99.90;;;;;;5051873;28;20041;-74
2021/01/01 10:55:28;;;;;;;2.83;1.00;;;9.10;99.90;;;;;;5051765;28;20021;-74
2021/01/01 10:57:56;;;;;;;1.20;0.60;;;8.90;99.90;;;;;;5051548;28;20040;-73
2021/01/01 11:00:22;;;;;;;1.40;0.50;;;8.70;99.90;;;;;;5051341;28;20025;-73
2021/01/01 11:02:49;;;;;;;2.63;0.63;;;8.60;99.90;;;;;;5051309;28;20466;-73
2021/01/01 11:05:16;;;;;;;6.00;1.48;;;8.40;99.90;;;;;;5051705;28;20032;-73
2021/01/01 11:07:43;;;;;;;3.58;0.88;;;8.30;99.90;;;;;;5051442;28;20025;-72
2021/01/01 11:10:11;;;;;;;2.35;0.65;;;8.20;99.90;;;;;;5051432;28;20025;-73
2021/01/01 11:12:38;;;;;;;5.78;0.98;;;8.00;99.90;;;;;;5051398;28;20373;-72
2021/01/01 12:21:54;;;;;;;;;;;8.20;99.90;;;;;;5056572;28;20028;-74
2021/01/01 12:26:54;;;;;;;1.65;0.70;;;8.20;99.90;;;;;;5072655;28;20033;-74
2021/01/01 12:29:27;;;;;;;2.42;0.68;;;8.10;99.90;;;;;;5058213;28;20024;-74
2021/01/01 12:31:55;;;;;;;1.20;0.70;;;8.10;99.90;;;;;;5058466;28;20024;-74
2021/01/01 12:34:22;;;;;;;1.20;0.60;;;8.00;99.90;;;;;;5070879;28;20044;-74
2021/01/01 12:36:49;;;;;;;2.17;0.80;;;7.90;99.90;;;;;;5072082;28;20047;-74
2021/01/01 12:39:16;;;;;;;2.17;0.80;;;7.90;99.90;;;;;;5073630;28;20032;-75
2021/01/01 12:41:43;;;;;;;2.35;0.80;;;7.90;99.90;;;;;;5061190;28;20035;-75
2021/01/01 12:44:10;;;;;;;1.02;0.63;;;7.70;99.90;;;;;;5063839;28;20045;-74
2021/01/01 12:46:37;;;;;;;2.50;1.05;;;7.60;99.90;;;;;;5072069;28;20041;-74
2021/01/01 12:49:04;;;;;;;1.55;0.70;;;7.60;99.90;;;;;;5061808;28;20020;-74
2021/01/01 12:51:31;;;;;;;0.60;0.43;;;7.60;99.90;;;;;;5073355;28;20369;-75
2021/01/01 12:53:58;;;;;;;2.67;0.50;;;7.50;99.90;;;;;;5069684;28;20048;-74
2021/01/01 12:56:25;;;;;;;2.42;0.65;;;7.50;99.90;;;;;;5053071;28;20021;-74
2021/01/01 12:58:52;;;;;;;2.13;0.98;;;7.50;99.90;;;;;;5053840;28;20032;-74
2021/01/01 13:01:19;;;;;;;1.83;0.70;;;7.50;99.90;;;;;;5053921;28;20028;-74
2021/01/01 13:03:48;;;;;;;2.35;0.90;;;7.50;99.90;;;;;;5055906;28;20405;-74
2021/01/01 13:06:18;;;;;;;4.15;0.98;;;7.50;99.90;;;;;;5054125;28;20033;-74
2021/01/01 13:08:45;;;;;;;1.15;0.70;;;7.70;99.90;;;;;;5067565;28;20032;-74
2021/01/01 13:11:12;;;;;;;0.60;0.40;;;7.90;99.90;;;;;;5073402;28;20087;-73
2021/01/01 13:13:39;;;;;;;1.10;0.52;;;7.80;99.90;;;;;;5053991;28;20064;-74
2021/01/01 13:16:06;;;;;;;2.38;0.40;;;7.80;99.90;;;;;;5053335;28;20029;-73
2021/01/01 13:18:33;;;;;;;0.60;0.40;;;7.80;99.90;;;;;;5065466;28;20028;-74
2021/01/01 13:21:00;;;;;;;0.88;0.40;;;7.70;99.90;;;;;;5072935;28;20032;-73
2021/01/01 13:23:27;;;;;;;0.82;0.40;;;7.70;99.90;;;;;;5071929;28;20400;-74
2021/01/01 13:25:54;;;;;;;1.02;0.50;;;7.90;99.40;;;;;;5073051;28;20029;-73
2021/01/01 13:28:21;;;;;;;0.70;0.30;;;8.00;99.10;;;;;;5069725;28;20048;-74
2021/01/01 13:30:47;;;;;;;1.00;0.50;;;8.20;98.40;;;;;;5062532;28;20033;-74
2021/01/01 13:33:14;;;;;;;2.10;0.43;;;8.50;98.10;;;;;;5053060;28;20044;-74
2021/01/01 13:35:45;;;;;;;1.20;0.47;;;8.50;97.50;;;;;;5053113;28;20128;-73
2021/01/01 13:38:12;;;;;;;0.77;0.35;;;8.50;97.90;;;;;;5051865;28;20056;-73
2021/01/01 13:40:39;;;;;;;0.68;0.30;;;8.60;97.70;;;;;;5066022;28;20041;-73
2021/01/01 13:43:06;;;;;;;0.60;0.30;;;8.60;97.50;;;;;;5071000;28;20051;-73
2021/01/01 13:45:32;;;;;;;1.42;0.32;;;8.60;97.90;;;;;;5072679;28;20048;-73
2021/01/01 13:48:00;;;;;;;0.98;0.45;;;8.50;98.10;;;;;;5061582;28;20382;-75
2021/01/01 13:50:27;;;;;;;0.95;0.40;;;8.40;98.10;;;;;;5053985;28;20024;-73
2021/01/01 13:52:54;;;;;;;1.25;0.45;;;8.30;98.00;;;;;;5052819;28;20044;-73
2021/01/01 13:55:21;;;;;;;1.08;0.35;;;8.30;97.70;;;;;;5060707;28;20031;-74
2021/01/01 13:57:49;;;;;;;1.23;0.40;;;8.30;98.00;;;;;;5072673;28;20028;-74
2021/01/01 14:00:16;;;;;;;1.45;0.50;;;8.40;97.70;;;;;;5070661;28;20775;-74
2021/01/01 14:02:43;;;;;;;0.73;0.38;;;8.40;97.60;;;;;;5061391;28;20029;-73
2021/01/01 14:05:11;;;;;;;0.55;0.55;;;8.40;97.70;;;;;;5053466;28;20029;-73
2021/01/01 14:07:41;;;;;;;1.10;0.60;;;8.30;97.70;;;;;;5071985;28;20024;-73
2021/01/01 14:10:08;;;;;;;2.20;0.40;;;8.30;98.00;;;;;;5062087;28;20044;-74